Time;durP1;ratioP1;P1;durP2;ratioP2;P2;SDS_P1;SDS_P2;PMS_P1;PMS_P2;Temp;Humidity;BMP_temperature;BMP_pressure;BME280_temperature;BME280_humidity;BME280_pressure;Samples;Min_cycle;Max_cycle;Signal;HPM_P1;HPM_P2
2023/02/17 07:37:39;;;;;;;6.70;3.60;;;;;;;8.75;100.00;96934.56;6244094;22;20023;-87
2023/02/17 07:40:07;;;;;;;5.80;2.80;;;;;;;8.69;100.00;96924.63;6216273;23;20105;-87
2023/02/17 07:42:36;;;;;;;8.13;2.70;;;;;;;8.71;100.00;96926.13;6191030;23;20012;-87
2023/02/17 07:45:06;;;;;;;8.47;2.57;;;;;;;8.74;100.00;96922.41;6216477;23;20374;-87
2023/02/17 07:47:32;;;;;;;7.07;3.43;;;;;;;8.71;100.00;96923.50;6191469;23;20067;-87
2023/02/17 07:49:58;;;;;;;6.73;2.70;;;;;;;8.82;100.00;96920.00;6189668;23;20016;-87
2023/02/17 07:52:24;;;;;;;7.43;2.57;;;;;;;8.87;100.00;96924.84;6194154;23;20243;-87
2023/02/17 07:54:50;;;;;;;6.23;2.70;;;;;;;8.82;100.00;96925.25;6192961;23;20047;-86
2023/02/17 07:57:16;;;;;;;6.50;2.73;;;;;;;8.85;100.00;96929.38;6193064;23;20004;-85
2023/02/17 07:59:42;;;;;;;6.70;2.57;;;;;;;8.85;100.00;96930.22;6194149;22;20035;-87
2023/02/17 08:02:13;;;;;;;6.40;2.50;;;;;;;8.82;100.00;96940.13;6217818;23;20022;-87
2023/02/17 08:04:39;;;;;;;7.40;3.93;;;;;;;8.84;100.00;96944.28;6218529;23;20015;-86
2023/02/17 08:07:04;;;;;;;6.77;2.73;;;;;;;8.84;100.00;96948.69;6190781;23;20000;-87
2023/02/17 08:15:11;;;;;;;8.75;3.13;;;;;;;8.80;100.00;96952.56;6219754;23;20011;-87
2023/02/17 08:17:44;;;;;;;7.80;2.53;;;;;;;8.87;100.00;96948.44;6195813;23;20011;-87
2023/02/17 08:20:12;;;;;;;6.67;2.63;;;;;;;8.86;100.00;96946.78;6194332;23;20020;-87
2023/02/17 08:22:38;;;;;;;5.13;2.40;;;;;;;8.87;100.00;96953.69;6220935;23;20012;-87
2023/02/17 08:25:06;;;;;;;8.67;2.50;;;;;;;8.82;100.00;96951.47;6193372;23;20434;-84
2023/02/17 08:27:32;;;;;;;5.13;2.50;;;;;;;8.88;100.00;96952.72;6216397;23;20300;-85
2023/02/17 08:29:57;;;;;;;7.60;2.30;;;;;;;8.97;100.00;96944.06;6191833;23;20016;-85
2023/02/17 08:32:23;;;;;;;10.60;2.77;;;;;;;8.92;100.00;96941.00;6193307;23;20000;-85
2023/02/17 08:34:57;;;;;;;5.87;2.20;;;;;;;8.89;100.00;96951.78;6217549;23;20038;-85
2023/02/17 08:37:25;;;;;;;7.57;2.60;;;;;;;8.98;100.00;96945.72;6193573;23;20015;-85
2023/02/17 08:39:51;;;;;;;8.20;3.53;;;;;;;9.03;100.00;96940.91;6192139;23;20023;-85
2023/02/17 08:42:16;;;;;;;10.67;2.97;;;;;;;9.09;100.00;96945.63;6191643;23;20015;-87
2023/02/17 08:44:57;;;;;;;6.40;2.60;;;;;;;9.09;100.00;96936.94;6193302;23;20023;-85
2023/02/17 08:47:24;;;;;;;5.70;2.33;;;;;;;9.11;100.00;96948.94;6192654;23;20039;-86
2023/02/17 08:49:59;;;;;;;6.23;2.70;;;;;;;9.16;100.00;96949.41;6192926;23;20062;-85
2023/02/17 08:52:25;;;;;;;5.70;2.57;;;;;;;9.14;100.00;96945.22;6217630;23;20008;-86
2023/02/17 08:54:51;;;;;;;9.33;4.00;;;;;;;9.20;100.00;96940.28;6198354;23;20023;-85
2023/02/17 08:57:36;;;;;;;7.87;2.40;;;;;;;9.14;100.00;96946.06;6218883;23;20055;-85
2023/02/17 09:00:05;;;;;;;5.60;2.57;;;;;;;9.14;100.00;96950.47;6219524;23;20098;-86
2023/02/17 09:02:31;;;;;;;4.80;2.27;;;;;;;9.16;100.00;96944.16;6218745;23;20067;-85
2023/02/17 09:04:56;;;;;;;8.33;2.80;;;;;;;9.27;100.00;96951.09;6191872;23;20057;-85
2023/02/17 09:07:22;;;;;;;10.27;2.70;;;;;;;9.27;100.00;96951.09;6192627;23;20014;-85
2023/02/17 09:09:48;;;;;;;9.23;3.13;;;;;;;9.25;100.00;96957.41;6193447;23;20346;-86
2023/02/17 09:12:14;;;;;;;6.17;2.47;;;;;;;9.31;100.00;96957.72;6192983;23;20016;-86
2023/02/17 09:14:40;;;;;;;6.43;2.63;;;;;;;9.31;100.00;96954.25;6198388;23;20020;-86
2023/02/17 09:17:15;;;;;;;5.13;2.00;;;;;;;9.34;100.00;96964.50;6226353;23;20399;-86
2023/02/17 09:19:45;;;;;;;7.90;2.40;;;;;;;9.24;100.00;96963.63;6217958;23;20012;-86
2023/02/17 09:22:24;;;;;;;6.43;2.40;;;;;;;9.26;100.00;96969.59;6220659;23;20078;-85
2023/02/17 09:24:53;;;;;;;5.20;2.00;;;;;;;9.30;100.00;96977.06;6194953;23;20008;-85
2023/02/17 09:27:19;;;;;;;7.47;2.40;;;;;;;9.23;100.00;96978.56;6194572;23;20019;-86
2023/02/17 09:29:49;;;;;;;7.30;3.13;;;;;;;9.21;100.00;96983.94;6195480;23;20012;-85
2023/02/17 09:32:15;;;;;;;7.80;3.00;;;;;;;9.29;100.00;96972.78;6193218;23;20020;-86
2023/02/17 09:34:48;;;;;;;8.13;2.37;;;;;;;9.34;100.00;96970.56;6195023;23;20034;-85
2023/02/17 09:37:17;;;;;;;5.32;2.15;;;;;;;9.34;100.00;96975.81;6216084;23;20078;-86
2023/02/17 09:39:43;;;;;;;5.23;2.33;;;;;;;9.47;100.00;96970.34;6195244;23;20687;-86
2023/02/17 09:42:19;;;;;;;6.07;2.10;;;;;;;9.63;100.00;96967.22;6193836;23;20012;-86
2023/02/17 09:44:50;;;;;;;6.10;2.40;;;;;;;9.63;100.00;96968.03;6191459;23;20046;-87
2023/02/17 09:47:47;;;;;;;4.20;1.50;;;;;;;9.61;100.00;96975.22;6218322;23;20004;-87
2023/02/17 09:50:41;;;;;;;6.47;2.70;;;;;;;9.60;100.00;96973.56;6243315;23;20012;-86
2023/02/17 09:53:36;;;;;;;4.28;2.10;;;;;;;9.62;100.00;96971.63;6218671;23;20020;-86
2023/02/17 09:56:08;;;;;;;5.73;2.30;;;;;;;9.53;100.00;96975.06;6217830;23;20012;-86
2023/02/17 09:59:00;;;;;;;4.27;1.77;;;;;;;9.54;100.00;96979.34;6217231;23;20435;-86
2023/02/17 10:01:31;;;;;;;5.07;1.97;;;;;;;9.54;100.00;96976.72;6186881;23;20023;-86
2023/02/17 10:04:03;;;;;;;8.17;3.40;;;;;;;9.72;100.00;96978.69;6197590;22;20031;-86
2023/02/17 10:06:49;;;;;;;5.53;1.93;;;;;;;9.96;100.00;96992.28;6216924;22;20031;-85
2023/02/17 10:09:27;;;;;;;3.93;1.90;;;;;;;10.01;100.00;96976.94;6243064;23;20075;-86
2023/02/17 10:12:14;;;;;;;4.60;2.20;;;;;;;10.11;100.00;96977.75;6213653;23;20023;-86
2023/02/17 10:15:10;;;;;;;3.93;2.20;;;;;;;10.23;100.00;96982.88;6194126;23;20012;-87
2023/02/17 10:17:53;;;;;;;7.10;2.30;;;;;;;10.10;100.00;96977.91;6192722;23;20012;-86
2023/02/17 10:20:23;;;;;;;4.23;2.03;;;;;;;10.09;100.00;96973.59;6190935;23;20106;-86
2023/02/17 10:23:26;;;;;;;5.97;1.70;;;;;;;10.04;100.00;96975.81;6215938;23;20459;-87
2023/02/17 10:26:29;;;;;;;6.95;2.28;;;;;;;10.00;100.00;96972.66;6066767;23;20606;-86
2023/02/17 10:29:01;;;;;;;3.63;1.93;;;;;;;10.11;100.00;96975.13;6219156;23;20020;-87
2023/02/17 10:31:30;;;;;;;4.77;2.07;;;;;;;10.06;100.00;96968.63;6190696;23;20018;-86
2023/02/17 10:34:13;;;;;;;4.23;1.80;;;;;;;10.29;100.00;96964.78;6191792;23;20019;-87
2023/02/17 10:36:56;;;;;;;6.03;2.20;;;;;;;10.92;100.00;96956.34;6190882;22;20524;-87
2023/02/17 10:39:45;;;;;;;4.47;1.80;;;;;;;11.29;100.00;96937.91;6192040;23;20027;-87
2023/02/17 10:42:42;;;;;;;10.00;5.57;;;;;;;11.94;100.00;96942.28;6194968;23;20012;-86
2023/02/17 10:45:20;;;;;;;8.03;2.63;;;;;;;11.36;100.00;96946.06;6192627;23;20071;-85
2023/02/17 10:47:56;;;;;;;3.90;2.13;;;;;;;11.01;100.00;96938.88;6191785;23;20018;-87
2023/02/17 10:50:29;;;;;;;5.13;2.23;;;;;;;11.00;100.00;96964.38;6190295;23;20085;-87
2023/02/17 10:53:29;;;;;;;5.72;2.47;;;;;;;10.94;100.00;96969.38;6191689;23;20129;-86
2023/02/17 10:56:20;;;;;;;7.93;3.73;;;;;;;10.72;100.00;96967.91;6189843;23;20019;-87
2023/02/17 10:59:05;;;;;;;12.07;4.93;;;;;;;10.76;100.00;96969.28;6192909;23;20011;-88
2023/02/17 11:01:31;;;;;;;6.93;3.43;;;;;;;10.78;100.00;96975.22;6200526;22;20004;-86
2023/02/17 11:04:09;;;;;;;8.33;2.67;;;;;;;10.72;100.00;96963.47;6215327;22;20079;-85
2023/02/17 11:06:46;;;;;;;5.37;2.30;;;;;;;10.96;100.00;96967.41;6238811;22;20054;-88
2023/02/17 11:09:27;;;;;;;5.43;2.00;;;;;;;10.93;100.00;96965.06;6190109;23;20439;-88
2023/02/17 11:12:03;;;;;;;4.57;1.93;;;;;;;11.06;100.00;96962.94;6191351;23;20016;-87
2023/02/17 11:14:38;;;;;;;4.17;1.73;;;;;;;10.94;100.00;96956.22;6190870;23;20016;-88
2023/02/17 11:17:37;;;;;;;4.80;2.13;;;;;;;11.04;100.00;96965.75;6215919;23;20012;-85
2023/02/17 11:20:52;;;;;;;10.70;5.80;;;;;;;11.11;100.00;96960.72;6189826;23;20015;-88
2023/02/17 11:23:28;;;;;;;3.90;1.90;;;;;;;11.15;100.00;96945.47;6205807;23;20023;-88
2023/02/17 11:26:22;;;;;;;5.47;2.25;;;;;;;10.98;100.00;96961.03;6231931;23;20016;-88
2023/02/17 11:28:48;;;;;;;5.47;2.30;;;;;;;11.11;100.00;96955.47;6208978;23;20070;-87
2023/02/17 11:31:27;;;;;;;4.53;2.03;;;;;;;11.01;100.00;96944.97;6207597;23;20012;-87
2023/02/17 11:33:56;;;;;;;4.80;1.93;;;;;;;11.23;100.00;96937.66;6214150;23;20012;-88
2023/02/17 11:44:28;;;;;;;4.37;1.70;;;;;;;11.01;100.00;96928.34;6266997;22;20027;-88
2023/02/17 11:47:27;;;;;;;4.20;2.17;;;;;;;11.00;100.00;96930.16;6241730;22;20016;-87
2023/02/17 11:51:02;;;;;;;4.07;1.85;;;;;;;10.85;100.00;96940.31;6269931;22;20007;-88
2023/02/17 11:53:58;;;;;;;2.77;1.60;;;;;;;10.69;100.00;96947.13;6148010;23;20029;-87
2023/02/17 11:56:36;;;;;;;7.20;2.50;;;;;;;10.62;100.00;96952.13;6200955;22;20443;-88
2023/02/17 11:59:17;;;;;;;8.40;3.10;;;;;;;10.46;100.00;96950.13;6222850;22;20085;-87
2023/02/17 12:02:19;;;;;;;3.60;1.87;;;;;;;10.40;100.00;96953.31;6248119;22;20094;-88
2023/02/17 12:05:24;;;;;;;5.37;2.23;;;;;;;10.36;100.00;96958.00;6246246;22;20445;-88
2023/02/17 12:08:18;;;;;;;4.33;1.80;;;;;;;10.41;100.00;96960.22;6246166;22;20840;-88
2023/02/17 12:10:46;;;;;;;;;;;;;;;10.48;100.00;96963.94;6220113;22;20599;-87
2023/02/17 12:13:12;;;;;;;4.70;2.00;;;;;;;10.52;100.00;96959.22;6220763;22;19913;-88
2023/02/17 12:16:21;;;;;;;4.13;2.03;;;;;;;10.57;100.00;96957.84;6219419;22;20047;-88
2023/02/17 12:19:25;;;;;;;4.27;1.63;;;;;;;10.57;100.00;96952.56;6245629;22;20020;-87
2023/02/17 12:21:59;;;;;;;6.05;2.00;;;;;;;10.56;100.00;96956.19;6244387;22;20086;-88
2023/02/17 12:24:33;;;;;;;6.77;3.07;;;;;;;10.75;100.00;96943.94;6219643;22;20012;-88
2023/02/17 12:27:12;;;;;;;;;;;;;;;10.84;100.00;96956.25;6220048;22;20016;-88
2023/02/17 12:30:06;;;;;;;4.10;2.20;;;;;;;10.88;100.00;96936.56;6221129;22;19922;-87
2023/02/17 12:32:54;;;;;;;5.03;2.42;;;;;;;10.97;100.00;96933.06;6219633;22;20015;-88
2023/02/17 12:35:51;;;;;;;8.57;3.53;;;;;;;11.08;100.00;96937.31;6243101;22;20015;-89
2023/02/17 12:39:03;;;;;;;5.20;1.80;;;;;;;11.46;100.00;96940.72;6271530;22;20022;-89
2023/02/17 12:41:33;;;;;;;4.70;2.33;;;;;;;11.57;100.00;96936.09;6215095;22;20016;-89
2023/02/17 12:44:11;;;;;;;4.37;1.70;;;;;;;11.64;100.00;96933.72;6219373;22;20008;-89
2023/02/17 12:46:56;;;;;;;5.00;1.67;;;;;;;11.59;100.00;96932.50;6219357;22;20699;-89
2023/02/17 12:49:41;;;;;;;4.60;2.17;;;;;;;11.53;100.00;96924.19;6220791;22;20016;-89
2023/02/17 12:52:24;;;;;;;4.37;2.10;;;;;;;11.54;100.00;96935.56;6218432;22;20012;-89
2023/02/17 12:54:57;;;;;;;;;;;;;;;11.56;100.00;96933.59;6223281;22;20016;-89
2023/02/17 12:57:40;;;;;;;4.83;1.60;;;;;;;11.49;100.00;96936.00;6222165;22;19911;-88
2023/02/17 13:00:25;;;;;;;6.28;2.65;;;;;;;11.89;100.00;96929.53;6249445;22;20094;-88
2023/02/17 13:02:56;;;;;;;6.67;3.27;;;;;;;11.98;100.00;96925.19;6230504;22;20079;-89
2023/02/17 13:05:47;;;;;;;7.10;3.03;;;;;;;11.99;100.00;96924.19;6249543;22;20004;-89
2023/02/17 13:08:51;;;;;;;7.43;2.97;;;;;;;11.75;100.00;96922.94;6226982;22;20691;-89
2023/02/17 13:11:31;;;;;;;19.07;11.80;;;;;;;11.71;100.00;96910.22;6219675;22;20019;-89
2023/02/17 13:14:27;;;;;;;7.50;4.33;;;;;;;11.62;100.00;96917.22;6218267;22;20426;-88
2023/02/17 13:16:58;;;;;;;19.93;13.47;;;;;;;11.56;100.00;96918.63;6219684;22;20012;-89
2023/02/17 13:19:31;;;;;;;19.80;15.43;;;;;;;11.68;100.00;96915.78;6221515;22;20011;-91
2023/02/17 13:22:22;;;;;;;18.52;11.15;;;;;;;11.83;100.00;96924.81;6221465;22;20015;-89
2023/02/17 13:24:53;;;;;;;7.70;4.20;;;;;;;11.80;100.00;96909.31;6220686;22;20431;-88
2023/02/17 13:27:31;;;;;;;3.83;2.00;;;;;;;11.84;100.00;96915.09;6221266;22;20015;-89
2023/02/17 13:30:23;;;;;;;3.50;1.77;;;;;;;11.71;100.00;96918.13;6221720;22;20019;-89
2023/02/17 13:33:15;;;;;;;5.27;2.63;;;;;;;11.59;100.00;96916.69;6221159;22;20334;-89
2023/02/17 13:35:49;;;;;;;3.63;1.80;;;;;;;11.51;100.00;96912.97;6221153;22;20418;-89
2023/02/17 13:38:31;;;;;;;4.82;1.85;;;;;;;11.35;100.00;96915.44;6220344;22;20924;-89
2023/02/17 13:41:06;;;;;;;3.70;1.73;;;;;;;11.30;100.00;96913.25;6220230;22;20026;-89
2023/02/17 13:43:41;;;;;;;8.80;1.63;;;;;;;11.42;100.00;96913.88;6220966;22;20019;-89
2023/02/17 13:46:18;;;;;;;2.93;1.40;;;;;;;11.43;100.00;96914.69;6220502;22;20644;-90
2023/02/17 13:48:44;;;;;;;4.67;2.07;;;;;;;11.43;100.00;96915.50;6224075;22;20012;-89
2023/02/17 13:51:26;;;;;;;4.87;1.60;;;;;;;11.47;100.00;96921.34;6223128;22;20045;-90
2023/02/17 13:54:03;;;;;;;3.30;1.50;;;;;;;11.38;100.00;96919.59;6226956;22;20012;-90
2023/02/17 13:56:30;;;;;;;3.93;1.53;;;;;;;11.39;100.00;96918.59;6232617;22;20089;-89
2023/02/17 13:59:16;;;;;;;4.47;2.00;;;;;;;11.34;100.00;96924.31;6197164;22;20442;-89
2023/02/17 14:01:43;;;;;;;4.03;2.47;;;;;;;11.38;100.00;96916.94;6221190;22;20015;-89
2023/02/17 14:04:25;;;;;;;4.20;1.70;;;;;;;11.30;100.00;96920.31;6222095;22;20046;-89
2023/02/17 14:06:55;;;;;;;3.03;1.40;;;;;;;11.36;100.00;96926.78;6223977;22;20330;-90
2023/02/17 14:09:26;;;;;;;2.90;1.60;;;;;;;11.31;100.00;96919.34;6227131;22;20011;-89
2023/02/17 14:11:54;;;;;;;3.53;1.50;;;;;;;11.23;100.00;96921.88;6223177;22;20018;-89
2023/02/17 14:14:30;;;;;;;2.97;1.40;;;;;;;11.31;100.00;96912.28;6248521;22;20007;-90
2023/02/17 14:17:12;;;;;;;2.50;1.37;;;;;;;11.36;100.00;96905.72;6222108;22;20019;-89
2023/02/17 14:19:52;;;;;;;5.07;1.57;;;;;;;11.39;100.00;96908.91;6220408;22;20020;-89
2023/02/17 14:22:33;;;;;;;4.80;1.60;;;;;;;11.26;100.00;96903.16;6219413;22;20030;-89
2023/02/17 14:25:13;;;;;;;3.00;1.43;;;;;;;11.17;100.00;96901.41;6222132;22;20018;-88
2023/02/17 14:27:44;;;;;;;3.33;1.77;;;;;;;11.20;100.00;96899.31;6223418;22;20019;-89
2023/02/17 14:30:31;;;;;;;3.43;1.37;;;;;;;11.12;100.00;96891.31;6222882;22;20049;-89
2023/02/17 14:33:17;;;;;;;3.30;1.47;;;;;;;11.25;100.00;96893.59;6221365;22;20237;-88
2023/02/17 14:35:56;;;;;;;4.70;2.20;;;;;;;11.10;100.00;96895.91;6224400;22;20094;-90
2023/02/17 14:38:23;;;;;;;3.37;1.60;;;;;;;11.18;100.00;96895.16;6223314;22;20012;-90
2023/02/17 14:40:54;;;;;;;2.97;1.67;;;;;;;11.21;100.00;96897.50;6221307;22;20430;-91
2023/02/17 14:43:27;;;;;;;2.03;1.27;;;;;;;11.16;100.00;96892.66;6224394;22;20019;-91
2023/02/17 14:45:55;;;;;;;2.92;1.60;;;;;;;11.14;100.00;96891.19;6224056;22;20019;-91
2023/02/17 14:48:24;;;;;;;3.37;1.50;;;;;;;11.18;100.00;96895.16;6222593;22;20710;-90
2023/02/17 14:51:13;;;;;;;3.60;1.47;;;;;;;11.07;100.00;96886.50;6221930;22;20094;-89
2023/02/17 14:53:50;;;;;;;7.40;2.10;;;;;;;11.13;100.00;96894.75;6221198;22;20015;-90
2023/02/17 14:56:39;;;;;;;3.13;1.60;;;;;;;11.11;100.00;96891.47;6221552;22;20107;-89
2023/02/17 14:59:13;;;;;;;4.03;2.13;;;;;;;11.13;100.00;96894.75;6222580;22;20779;-89
2023/02/17 15:01:56;;;;;;;4.10;1.75;;;;;;;11.18;100.00;96895.16;6223068;22;20108;-89
2023/02/17 15:04:38;;;;;;;3.30;1.50;;;;;;;11.29;100.00;96887.06;6221935;22;20039;-89
2023/02/17 15:07:04;;;;;;;4.13;1.60;;;;;;;11.56;100.00;96887.00;6222125;22;20354;-90
2023/02/17 15:09:32;;;;;;;2.97;1.47;;;;;;;11.80;100.00;96878.53;6221108;22;20008;-89
2023/02/17 15:11:58;;;;;;;3.10;1.47;;;;;;;12.00;100.00;96873.13;6222856;22;20178;-89
2023/02/17 15:14:27;;;;;;;4.70;1.80;;;;;;;11.99;100.00;96882.84;6223108;22;20015;-91
2023/02/17 15:17:02;;;;;;;4.23;1.77;;;;;;;11.95;100.00;96891.22;6227100;22;20061;-90
2023/02/17 15:19:32;;;;;;;3.93;1.70;;;;;;;11.70;100.00;96883.06;6224342;22;20603;-90
2023/02/17 15:22:02;;;;;;;3.58;1.52;;;;;;;11.84;100.00;96871.19;6224366;22;20026;-90
2023/02/17 15:24:48;;;;;;;6.07;1.70;;;;;;;11.84;100.00;96875.56;6224498;22;20016;-90
2023/02/17 15:27:23;;;;;;;4.20;1.80;;;;;;;11.74;100.00;96862.50;6253945;22;20024;-90
2023/02/17 15:30:02;;;;;;;4.10;1.67;;;;;;;11.63;100.00;96865.34;6221846;22;20022;-88
2023/02/17 15:32:31;;;;;;;4.20;1.70;;;;;;;11.55;100.00;96860.84;6222030;22;20015;-87
2023/02/17 15:34:59;;;;;;;2.27;1.17;;;;;;;11.50;100.00;96866.56;6223880;22;20019;-87
2023/02/17 15:37:27;;;;;;;4.80;1.40;;;;;;;11.46;100.00;96872.25;6223785;22;20439;-87
2023/02/17 15:39:54;;;;;;;5.57;1.50;;;;;;;11.55;100.00;96871.38;6222879;22;20019;-88
2023/02/17 15:42:24;;;;;;;2.70;1.20;;;;;;;11.41;100.00;96864.81;6223090;22;20016;-88
2023/02/17 15:44:51;;;;;;;16.57;9.57;;;;;;;11.34;100.00;96853.22;6222598;22;20012;-88
2023/02/17 15:47:20;;;;;;;7.80;2.17;;;;;;;11.34;100.00;96855.84;6222693;22;20411;-89
2023/02/17 15:49:46;;;;;;;4.77;1.70;;;;;;;11.32;100.00;96860.44;6251211;22;20031;-88
2023/02/17 15:52:53;;;;;;;5.30;1.20;;;;;;;11.23;100.00;96854.28;6249971;22;20081;-92
2023/02/17 15:55:40;;;;;;;5.10;1.80;;;;;;;11.18;100.00;96842.50;6049160;23;20379;-90
2023/02/17 15:58:17;;;;;;;5.27;2.17;;;;;;;11.16;100.00;96842.66;6228543;22;20012;-89
2023/02/17 16:00:48;;;;;;;6.27;3.00;;;;;;;11.15;100.00;96833.09;6248467;22;20042;-87
2023/02/17 16:03:14;;;;;;;4.07;1.80;;;;;;;11.13;100.00;96848.19;6250579;22;20050;-88
2023/02/17 16:05:43;;;;;;;3.13;1.43;;;;;;;11.02;100.00;96854.50;6241865;22;20524;-91
2023/02/17 16:11:54;;;;;;;3.80;1.63;;;;;;;10.97;100.00;96853.31;6278703;22;20103;-90
2023/02/17 16:17:57;;;;;;;5.50;1.30;;;;;;;10.98;100.00;96865.47;6266118;22;20026;-90
2023/02/17 16:24:17;;;;;;;2.90;1.20;;;;;;;10.93;100.00;96858.03;6312578;22;20023;-90
2023/02/17 16:32:09;;;;;;;2.40;1.23;;;;;;;10.87;100.00;96857.78;6156530;23;20064;-90
2023/02/17 16:34:49;;;;;;;4.80;1.57;;;;;;;10.77;100.00;96861.28;6160003;23;20029;-90
2023/02/17 16:37:17;;;;;;;4.17;1.83;;;;;;;10.72;100.00;96860.88;6259179;22;20019;-90
2023/02/17 16:39:44;;;;;;;2.20;1.20;;;;;;;10.74;100.00;96861.56;6271364;22;20026;-90
2023/02/17 16:42:18;;;;;;;3.90;1.43;;;;;;;10.71;100.00;96859.22;6259048;22;20037;-90
2023/02/17 16:44:44;;;;;;;3.90;1.60;;;;;;;10.71;100.00;96875.00;6260710;22;20018;-90
2023/02/17 16:47:18;;;;;;;2.43;1.40;;;;;;;10.71;100.00;96868.91;6257598;22;20007;-91
2023/02/17 16:49:54;;;;;;;8.33;3.17;;;;;;;10.70;100.00;96875.16;6258367;22;20015;-90
2023/02/17 16:52:25;;;;;;;3.80;1.80;;;;;;;10.78;100.00;96888.41;6255775;22;20011;-90
2023/02/17 16:54:51;;;;;;;2.53;1.23;;;;;;;10.69;100.00;96892.72;6255904;22;20015;-90
2023/02/17 16:57:19;;;;;;;4.60;1.57;;;;;;;10.69;100.00;96903.25;6255623;22;20596;-90
2023/02/17 16:59:46;;;;;;;4.33;2.63;;;;;;;10.77;100.00;96902.56;6255302;22;20019;-90
2023/02/17 17:02:12;;;;;;;2.97;1.43;;;;;;;10.70;100.00;96893.59;6252375;22;20038;-89
2023/02/17 17:04:42;;;;;;;2.37;1.37;;;;;;;10.72;100.00;96891.63;6253959;22;20015;-89
2023/02/17 17:07:42;;;;;;;4.50;1.73;;;;;;;10.76;100.00;96892.97;6255205;22;20018;-91
2023/02/17 17:10:14;;;;;;;6.00;1.83;;;;;;;10.78;100.00;96896.31;6255581;22;20019;-91
2023/02/17 17:13:12;;;;;;;3.07;1.57;;;;;;;10.82;100.00;96895.03;6281775;22;20015;-90
2023/02/17 17:15:43;;;;;;;2.83;1.10;;;;;;;10.91;100.00;96902.06;6256865;22;20027;-90
2023/02/17 17:21:56;;;;;;;3.70;1.80;;;;;;;10.95;100.00;96892.91;6309349;22;20018;-91
2023/02/17 17:24:44;;;;;;;3.13;1.77;;;;;;;10.99;100.00;96891.63;6282692;22;20098;-91
2023/02/17 17:27:10;;;;;;;6.93;2.83;;;;;;;10.97;100.00;96888.34;6281982;22;20082;-90
2023/02/17 17:29:55;;;;;;;5.23;2.90;;;;;;;10.94;100.00;96888.63;6256681;22;20011;-90
2023/02/17 17:32:46;;;;;;;6.10;2.77;;;;;;;10.92;100.00;96881.84;6253496;22;20018;-89
2023/02/17 17:35:13;;;;;;;6.20;2.50;;;;;;;10.94;100.00;96883.38;6255171;22;20015;-89
2023/02/17 17:37:39;;;;;;;7.90;2.77;;;;;;;10.95;100.00;96877.13;6279998;22;20003;-90
2023/02/17 17:40:05;;;;;;;5.70;2.30;;;;;;;11.01;100.00;96888.88;6283601;22;20014;-90
2023/02/17 17:42:31;;;;;;;4.37;2.17;;;;;;;11.07;100.00;96886.50;6258997;22;20011;-90
2023/02/17 17:44:56;;;;;;;5.33;2.00;;;;;;;11.09;100.00;96895.03;6283496;22;20094;-90
2023/02/17 17:47:22;;;;;;;7.37;3.23;;;;;;;11.05;100.00;96895.50;6259411;22;20004;-90
2023/02/17 17:49:48;;;;;;;5.40;2.70;;;;;;;11.07;100.00;96901.47;6289700;22;20015;-91
2023/02/17 17:52:16;;;;;;;2.37;1.23;;;;;;;11.09;100.00;96899.50;6277321;22;20026;-91
2023/02/17 17:54:55;;;;;;;3.33;2.00;;;;;;;11.05;100.00;96896.31;6261661;22;20046;-91
2023/02/17 17:57:21;;;;;;;5.93;2.20;;;;;;;11.05;100.00;96893.69;6283059;22;20089;-90
2023/02/17 17:59:48;;;;;;;4.40;1.40;;;;;;;11.05;100.00;96900.75;6257102;22;20426;-90
2023/02/17 18:02:14;;;;;;;1.93;0.93;;;;;;;11.08;100.00;96903.94;6256239;22;20015;-89
2023/02/17 18:08:28;;;;;;;2.47;1.33;;;;;;;11.05;100.00;96904.22;6317756;22;20073;-96
2023/02/17 18:14:43;;;;;;;2.77;1.00;;;;;;;11.12;100.00;96914.16;6314099;22;20015;-93
2023/02/17 18:20:55;;;;;;;4.00;1.63;;;;;;;11.18;100.00;96905.69;6314853;22;20132;-93
2023/02/17 18:27:08;;;;;;;3.60;1.70;;;;;;;11.14;100.00;96906.97;6316012;22;20457;-94
2023/02/17 18:33:22;;;;;;;2.97;1.30;;;;;;;11.10;100.00;96911.69;6316119;22;20017;-94
2023/02/17 18:39:35;;;;;;;5.37;1.50;;;;;;;11.20;100.00;96907.22;6318175;22;20182;-95
2023/02/17 18:45:48;;;;;;;3.70;1.30;;;;;;;11.20;100.00;96932.69;6318811;22;20019;-94
2023/02/17 18:48:53;;;;;;;4.83;1.40;;;;;;;11.20;100.00;96943.22;6271249;22;20076;-96
2023/02/17 18:51:42;;;;;;;3.95;1.30;;;;;;;11.17;100.00;96946.16;6284907;22;19995;-93
2023/02/17 18:57:56;;;;;;;2.87;1.30;;;;;;;11.12;100.00;96966.81;6337180;22;20033;-94
2023/02/17 19:00:23;;;;;;;3.10;1.23;;;;;;;11.15;100.00;96962.09;6279216;22;20055;-93
2023/02/17 19:02:54;;;;;;;3.13;1.30;;;;;;;11.15;100.00;96966.53;6279991;22;20011;-93
2023/02/17 19:05:54;;;;;;;3.13;1.40;;;;;;;11.15;100.00;96961.28;6279518;22;20018;-93
2023/02/17 19:08:35;;;;;;;2.50;1.10;;;;;;;11.17;100.00;96975.13;6280465;22;20075;-92
2023/02/17 19:11:01;;;;;;;4.60;1.40;;;;;;;11.12;100.00;96979.97;6280701;22;20019;-93
2023/02/17 19:13:27;;;;;;;3.70;1.20;;;;;;;11.09;100.00;96973.19;6279356;22;20006;-93
2023/02/17 19:15:53;;;;;;;5.87;1.90;;;;;;;11.02;100.00;97001.88;6270903;22;20070;-92
2023/02/17 19:18:19;;;;;;;3.47;1.60;;;;;;;11.04;100.00;97004.41;6272555;22;20011;-92
2023/02/17 19:20:44;;;;;;;3.70;1.57;;;;;;;10.97;100.00;97004.13;6299672;22;20105;-91
2023/02/17 19:23:10;;;;;;;3.40;1.53;;;;;;;10.87;100.00;97007.78;6274606;22;20022;-92
2023/02/17 19:25:37;;;;;;;5.60;2.27;;;;;;;10.84;100.00;97001.81;6274432;22;20026;-93
2023/02/17 19:28:03;;;;;;;5.83;2.27;;;;;;;10.84;100.00;96999.19;6274370;22;20003;-91
2023/02/17 19:30:29;;;;;;;5.70;2.30;;;;;;;10.82;100.00;97010.81;6276137;22;20071;-91
2023/02/17 19:32:54;;;;;;;7.40;3.13;;;;;;;10.72;100.00;97010.00;6276403;22;20023;-88
2023/02/17 19:38:04;;;;;;;9.73;5.13;;;;;;;10.56;100.00;97032.47;6254346;22;20016;-89
2023/02/17 19:40:31;;;;;;;7.67;4.43;;;;;;;10.51;100.00;97037.28;6190843;23;20050;-89
2023/02/17 19:43:00;;;;;;;4.50;2.27;;;;;;;10.39;100.00;97033.13;6191405;23;20532;-90
2023/02/17 19:45:27;;;;;;;9.90;5.40;;;;;;;10.25;100.00;97036.16;6192483;23;20015;-89
2023/02/17 19:47:57;;;;;;;22.90;12.70;;;;;;;10.20;100.00;97043.63;6191108;23;20046;-89
2023/02/17 19:50:26;;;;;;;10.33;5.90;;;;;;;10.19;100.00;97047.19;6216783;23;20451;-89
2023/02/17 19:53:10;;;;;;;17.63;11.23;;;;;;;10.13;100.00;97044.16;6194841;23;20878;-91
2023/02/17 19:55:37;;;;;;;12.25;6.43;;;;;;;10.05;100.00;97051.06;6191559;23;20020;-90
2023/02/17 19:58:04;;;;;;;6.93;4.53;;;;;;;9.98;100.00;97063.91;6192886;23;20799;-90
2023/02/17 20:00:32;;;;;;;15.23;11.00;;;;;;;9.93;100.00;97076.63;6192026;23;20016;-89
2023/02/17 20:03:01;;;;;;;9.23;5.27;;;;;;;9.83;100.00;97067.91;6191941;23;20023;-87
2023/02/17 20:05:37;;;;;;;10.27;4.40;;;;;;;9.74;100.00;97072.16;6189521;23;20020;-88
2023/02/17 20:08:04;;;;;;;6.27;3.87;;;;;;;9.67;100.00;97061.34;6192217;23;20037;-90
2023/02/17 20:10:30;;;;;;;13.57;9.40;;;;;;;9.64;100.00;97063.41;6192611;23;20023;-88
2023/02/17 20:13:12;;;;;;;8.80;4.93;;;;;;;9.64;100.00;97061.59;6194736;23;20015;-90
2023/02/17 20:15:43;;;;;;;5.80;3.63;;;;;;;9.63;100.00;97070.47;6191511;23;20023;-89
2023/02/17 20:18:17;;;;;;;5.53;2.80;;;;;;;9.62;100.00;97058.31;6190869;23;20019;-88
2023/02/17 20:21:02;;;;;;;5.33;3.13;;;;;;;9.62;100.00;97070.56;6193777;23;20019;-89
2023/02/17 20:23:52;;;;;;;12.87;8.40;;;;;;;9.66;100.00;97057.06;6192506;23;20020;-89
2023/02/17 20:26:45;;;;;;;9.00;5.17;;;;;;;9.61;100.00;97046.09;6192775;23;20016;-89
2023/02/17 20:29:38;;;;;;;;;;;;;;;;;;;;;
2023/02/17 20:32:32;;;;;;;10.43;6.88;;;;;;;9.67;100.00;97063.13;6242953;23;20410;-89
2023/02/17 20:35:02;;;;;;;8.50;5.17;;;;;;;9.70;100.00;97057.63;6192480;23;20058;-89
2023/02/17 20:37:28;;;;;;;15.10;9.20;;;;;;;9.79;100.00;97045.47;6167165;23;20573;-88
2023/02/17 20:39:57;;;;;;;10.00;4.60;;;;;;;9.79;100.00;97059.47;6191705;23;20018;-88
2023/02/17 20:42:46;;;;;;;2.60;0.93;;;;;;;9.86;100.00;97068.47;6193532;23;20015;-89
2023/02/17 20:45:33;;;;;;;12.43;6.97;;;;;;;9.86;100.00;97057.13;6219154;23;20083;-90
2023/02/17 20:48:31;;;;;;;9.60;5.47;;;;;;;9.95;100.00;97056.28;6193072;23;20004;-90
2023/02/17 20:54:46;;;;;;;6.20;3.40;;;;;;;9.95;100.00;97058.09;6239767;23;19912;-88
2023/02/17 20:57:37;;;;;;;11.13;6.67;;;;;;;9.98;100.00;97055.19;6196771;23;20319;-90